Leolyn, Pennsylvania
Current Conditions -  °F | °C
As of 9:57 AM on Wednesday 26 Nov 2014 (Local Time) from KIPT Reporting Station
Light Snow Light Snow  
Wind Chill: 34°   Ceiling: 1400
Heat Index: 34°   Visibility: 0.75mi
Dew Point: 30°   Wind: 0mph
Humidity: 85%   Direction: NA
Pressure: 30.12"   Gusts: NA
Location:  41.5548°N, 76.8911°W
Report Text: KIPT 261457Z 00000KT 3/4SM -SN BR VV014 01/M01 A3012 RMK AO2 P0001 T00111011
Loading
Personal Weather Stations






























Interactive Weather Map New forecast layout! Learn more

10-Day Weather Forecast

Advertisements
Track Severe Weather on mobile